createdAt,value
2024-01-17T00:02:01.618Z,19.85
2024-01-17T00:04:34.578Z,13.80
2024-01-17T00:07:08.367Z,14.95
2024-01-17T00:09:41.153Z,10.93
2024-01-17T00:12:14.248Z,14.65
2024-01-17T00:14:46.932Z,11.68
2024-01-17T00:17:19.927Z,12.38
2024-01-17T00:19:53.131Z,11.95
2024-01-17T00:22:26.118Z,14.73
2024-01-17T00:24:58.774Z,16.00
2024-01-17T00:27:31.872Z,8.40
2024-01-17T00:30:05.079Z,7.32
2024-01-17T00:32:38.229Z,10.77
2024-01-17T00:35:11.114Z,11.73
2024-01-17T00:37:44.142Z,12.65
2024-01-17T00:40:17.994Z,13.05
2024-01-17T00:42:51.612Z,15.68
2024-01-17T00:45:24.303Z,14.05
2024-01-17T00:47:57.463Z,15.73
2024-01-17T00:50:30.305Z,15.13
2024-01-17T00:53:03.550Z,14.57
2024-01-17T00:55:36.161Z,14.48
2024-01-17T00:58:09.117Z,14.82
2024-01-17T01:00:42.395Z,14.65
2024-01-17T01:03:16.170Z,13.68
2024-01-17T01:05:49.670Z,13.15
2024-01-17T01:08:23.048Z,13.38
2024-01-17T01:10:55.709Z,13.45
2024-01-17T01:13:28.760Z,11.85
2024-01-17T01:16:01.345Z,12.20
2024-01-17T01:18:34.447Z,10.82
2024-01-17T01:21:07.528Z,12.82
2024-01-17T01:23:40.576Z,12.60
2024-01-17T01:26:13.526Z,11.70
2024-01-17T01:28:46.482Z,11.90
2024-01-17T01:31:19.076Z,12.88
2024-01-17T01:33:52.181Z,10.45
2024-01-17T01:36:25.015Z,12.02
2024-01-17T01:38:58.065Z,12.15
2024-01-17T01:41:30.761Z,12.68
2024-01-17T01:44:03.819Z,11.43
2024-01-17T01:46:36.535Z,12.20
2024-01-17T01:49:09.627Z,11.35
2024-01-17T01:51:45.628Z,13.18
2024-01-17T01:54:21.182Z,12.55
2024-01-17T01:56:55.675Z,13.93
2024-01-17T01:59:28.836Z,13.25
2024-01-17T02:02:01.592Z,13.07
2024-01-17T02:04:36.302Z,11.52
2024-01-17T02:07:09.324Z,13.82
2024-01-17T02:09:42.598Z,14.40
2024-01-17T02:12:15.474Z,12.02
2024-01-17T02:14:48.492Z,12.60
2024-01-17T02:17:21.169Z,11.07
2024-01-17T02:19:54.372Z,12.73
2024-01-17T02:22:27.082Z,11.20
2024-01-17T02:25:04.401Z,12.75
2024-01-17T02:27:37.123Z,10.65
2024-01-17T02:30:10.821Z,11.88
2024-01-17T02:32:44.638Z,12.93
2024-01-17T02:35:18.483Z,14.80
2024-01-17T02:37:51.707Z,10.77
2024-01-17T02:40:24.815Z,11.35
2024-01-17T02:42:57.760Z,12.05
2024-01-17T02:45:30.825Z,12.90
2024-01-17T02:48:04.444Z,12.27
2024-01-17T02:50:38.218Z,12.40
2024-01-17T02:53:10.998Z,12.68
2024-01-17T02:55:44.265Z,14.68
2024-01-17T02:58:18.034Z,13.00
2024-01-17T03:00:52.608Z,13.18
2024-01-17T03:03:25.348Z,13.45
2024-01-17T03:05:58.801Z,11.82
2024-01-17T03:08:31.622Z,11.85
2024-01-17T03:11:04.842Z,10.20
2024-01-17T03:13:37.622Z,11.88
2024-01-17T03:16:10.850Z,12.18
2024-01-17T03:18:45.475Z,11.45
2024-01-17T03:21:18.552Z,12.32
2024-01-17T03:23:51.371Z,13.73
2024-01-17T03:26:24.607Z,13.02
2024-01-17T03:28:57.268Z,11.90
2024-01-17T03:31:30.230Z,12.10
2024-01-17T03:34:03.063Z,11.27
2024-01-17T03:36:36.237Z,13.05
2024-01-17T03:39:09.065Z,10.82
2024-01-17T03:41:42.166Z,10.10
2024-01-17T03:44:14.824Z,11.00
2024-01-17T03:46:47.888Z,8.57
2024-01-17T03:49:20.664Z,10.18
2024-01-17T03:51:54.629Z,11.07
2024-01-17T03:54:27.191Z,10.45
2024-01-17T03:57:01.625Z,9.05
2024-01-17T03:59:34.510Z,10.70
2024-01-17T04:02:07.487Z,9.82
2024-01-17T04:04:43.178Z,8.48
2024-01-17T04:07:16.442Z,7.72
2024-01-17T04:09:49.102Z,8.68
2024-01-17T04:12:22.311Z,9.40
2024-01-17T04:14:55.134Z,7.70
2024-01-17T04:17:28.236Z,9.32
2024-01-17T04:20:00.970Z,9.82
2024-01-17T04:22:35.229Z,9.13
2024-01-17T04:25:09.093Z,8.10
2024-01-17T04:27:42.381Z,9.75
2024-01-17T04:30:15.804Z,8.93
2024-01-17T04:32:49.172Z,9.15
2024-01-17T04:35:22.308Z,9.68
2024-01-17T04:37:55.378Z,10.48
2024-01-17T04:40:28.183Z,8.75
2024-01-17T04:43:01.196Z,8.70
2024-01-17T04:45:33.940Z,10.48
2024-01-17T04:48:09.654Z,10.68
2024-01-17T04:50:42.469Z,9.63
2024-01-17T04:53:16.981Z,10.30
2024-01-17T04:55:49.632Z,9.10
2024-01-17T04:58:22.695Z,9.45
2024-01-17T05:00:55.576Z,9.68
2024-01-17T05:06:02.388Z,10.95
2024-01-17T05:08:35.463Z,9.50
2024-01-17T05:11:08.111Z,10.65
2024-01-17T05:13:41.082Z,8.82
2024-01-17T05:16:13.975Z,9.98
2024-01-17T05:18:47.365Z,10.10
2024-01-17T05:21:20.096Z,10.75
2024-01-17T05:23:54.524Z,9.75
2024-01-17T05:26:27.372Z,10.93
2024-01-17T05:29:00.500Z,10.13
2024-01-17T05:31:33.317Z,13.00
2024-01-17T05:34:06.677Z,12.65
2024-01-17T05:36:39.606Z,11.02
2024-01-17T05:39:14.040Z,12.50
2024-01-17T05:41:46.723Z,10.10
2024-01-17T05:44:19.713Z,11.57
2024-01-17T05:46:52.336Z,12.35
2024-01-17T05:49:25.345Z,14.00
2024-01-17T05:51:58.077Z,12.10
2024-01-17T05:54:31.081Z,12.30
2024-01-17T05:57:06.831Z,12.15
2024-01-17T05:59:47.581Z,13.15
2024-01-17T06:02:26.816Z,11.93
2024-01-17T06:04:59.857Z,14.70
2024-01-17T06:07:32.957Z,13.82
2024-01-17T06:10:06.291Z,14.02
2024-01-17T06:12:40.401Z,16.42
2024-01-17T06:15:19.746Z,15.20
2024-01-17T06:17:53.699Z,12.18
2024-01-17T06:20:35.338Z,14.13
2024-01-17T06:23:18.750Z,13.43
2024-01-17T06:25:56.368Z,11.95
2024-01-17T06:28:28.947Z,10.73
2024-01-17T06:31:02.374Z,12.30
2024-01-17T06:33:35.137Z,12.10
2024-01-17T06:36:10.030Z,10.73
2024-01-17T06:38:42.749Z,10.07
2024-01-17T06:41:15.812Z,9.52
2024-01-17T06:43:48.485Z,10.15
2024-01-17T06:46:21.517Z,10.95
2024-01-17T06:49:00.923Z,10.60
2024-01-17T06:51:34.262Z,10.15
2024-01-17T06:54:11.152Z,11.15
2024-01-17T06:56:44.796Z,10.85
2024-01-17T06:59:20.576Z,8.50
2024-01-17T07:01:59.926Z,10.50
2024-01-17T07:04:36.904Z,10.75
2024-01-17T07:07:16.301Z,9.50
2024-01-17T07:09:54.057Z,9.43
2024-01-17T07:12:28.855Z,10.85
2024-01-17T07:15:01.746Z,9.75
2024-01-17T07:17:35.137Z,8.30
2024-01-17T07:20:08.853Z,11.00
2024-01-17T07:22:42.978Z,11.27
2024-01-17T07:25:15.661Z,12.45
2024-01-17T07:27:52.680Z,10.52
2024-01-17T07:30:29.242Z,9.48
2024-01-17T07:33:02.565Z,9.57
2024-01-17T07:35:35.392Z,10.43
2024-01-17T07:38:09.203Z,9.70
2024-01-17T07:40:42.379Z,11.13
2024-01-17T07:43:15.962Z,11.98
2024-01-17T07:45:48.739Z,13.68
2024-01-17T07:48:21.968Z,12.50
2024-01-17T07:50:54.895Z,10.35
2024-01-17T07:53:28.865Z,9.15
2024-01-17T07:56:02.009Z,10.68
2024-01-17T07:58:36.893Z,11.45
2024-01-17T08:01:09.628Z,11.73
2024-01-17T08:03:42.952Z,11.35
2024-01-17T08:06:15.875Z,9.57
2024-01-17T08:08:50.766Z,11.45
2024-01-17T08:11:26.224Z,11.60
2024-01-17T08:13:59.243Z,9.60
2024-01-17T08:16:32.324Z,9.75
2024-01-17T08:19:06.811Z,13.30
2024-01-17T08:21:39.643Z,11.45
2024-01-17T08:24:12.811Z,10.95
2024-01-17T08:26:46.135Z,10.68
2024-01-17T08:29:19.929Z,7.85
2024-01-17T08:31:52.895Z,9.68
2024-01-17T08:34:26.234Z,10.98
2024-01-17T08:36:59.961Z,11.40
2024-01-17T08:39:33.012Z,10.35
2024-01-17T08:42:05.729Z,10.55
2024-01-17T08:44:39.377Z,11.40
2024-01-17T08:47:12.156Z,11.15
2024-01-17T08:49:45.220Z,11.60
2024-01-17T08:52:18.009Z,9.75
2024-01-17T08:54:50.963Z,12.25
2024-01-17T08:57:23.785Z,11.40
2024-01-17T08:59:57.284Z,15.10
2024-01-17T09:02:29.939Z,11.77
2024-01-17T09:05:04.542Z,12.93
2024-01-17T09:07:37.865Z,14.93
2024-01-17T09:10:11.327Z,14.77
2024-01-17T09:12:44.073Z,17.02
2024-01-17T09:15:22.584Z,14.32
2024-01-17T09:17:56.419Z,17.75
2024-01-17T09:20:29.768Z,13.55
2024-01-17T09:23:02.369Z,13.73
2024-01-17T09:25:36.331Z,13.65
2024-01-17T09:28:13.542Z,15.45
2024-01-17T09:30:47.027Z,15.15
2024-01-17T09:33:27.174Z,16.15
2024-01-17T09:36:02.951Z,13.98
2024-01-17T09:38:36.367Z,13.88
2024-01-17T09:41:09.611Z,11.82
2024-01-17T09:43:42.449Z,14.02
2024-01-17T09:46:15.949Z,11.95
2024-01-17T09:48:53.198Z,11.85
2024-01-17T09:51:34.725Z,10.43
2024-01-17T09:54:08.298Z,11.05
2024-01-17T09:56:43.890Z,13.23
2024-01-17T09:59:18.951Z,15.02
2024-01-17T10:01:52.152Z,12.63
2024-01-17T10:04:26.391Z,12.75
2024-01-17T10:06:59.695Z,14.68
2024-01-17T10:09:33.048Z,12.38
2024-01-17T10:12:06.744Z,12.15
2024-01-17T10:14:39.615Z,13.63
2024-01-17T10:17:12.629Z,13.32
2024-01-17T10:19:45.510Z,11.88
2024-01-17T10:22:21.171Z,13.68
2024-01-17T10:24:54.301Z,12.48
2024-01-17T10:27:28.744Z,13.98
2024-01-17T10:30:02.198Z,13.35
2024-01-17T10:32:35.698Z,13.80
2024-01-17T10:35:08.857Z,13.95
2024-01-17T10:37:42.329Z,10.60
2024-01-17T10:40:15.671Z,12.30
2024-01-17T10:42:48.806Z,11.52
2024-01-17T10:45:22.274Z,11.50
2024-01-17T10:47:55.599Z,9.68
2024-01-17T10:50:29.208Z,8.70
2024-01-17T10:53:12.587Z,10.60
2024-01-17T10:55:47.015Z,8.68
2024-01-17T10:58:22.016Z,9.50
2024-01-17T11:00:56.433Z,9.20
2024-01-17T11:03:31.052Z,10.50
2024-01-17T11:06:04.493Z,10.77
2024-01-17T11:08:38.912Z,10.70
2024-01-17T11:11:13.158Z,8.55
2024-01-17T11:13:48.354Z,9.10
2024-01-17T11:16:21.767Z,10.70
2024-01-17T11:18:55.720Z,10.38
2024-01-17T11:21:28.666Z,10.07
2024-01-17T11:24:22.310Z,12.18
2024-01-17T11:26:56.193Z,9.63
2024-01-17T11:29:52.998Z,10.63
2024-01-17T11:32:29.829Z,9.90
2024-01-17T11:35:03.982Z,9.52
2024-01-17T11:37:40.449Z,9.25
2024-01-17T11:40:17.582Z,10.30
2024-01-17T11:42:51.295Z,9.38
2024-01-17T11:45:24.456Z,11.32
2024-01-17T11:47:57.408Z,9.20
2024-01-17T11:50:30.663Z,11.60
2024-01-17T11:53:03.645Z,11.20
2024-01-17T11:55:49.181Z,10.48
2024-01-17T11:58:22.888Z,9.85
2024-01-17T12:00:56.039Z,10.25
2024-01-17T12:03:32.010Z,11.18
2024-01-17T12:06:05.264Z,11.43
2024-01-17T12:08:38.445Z,9.80
2024-01-17T12:11:11.900Z,10.52
2024-01-17T12:13:46.605Z,10.65
2024-01-17T12:16:25.547Z,9.30
2024-01-17T12:18:59.150Z,9.82
2024-01-17T12:21:33.675Z,10.50
2024-01-17T12:24:10.303Z,12.82
2024-01-17T12:26:44.577Z,11.43
2024-01-17T12:29:21.812Z,10.30
2024-01-17T12:31:54.897Z,8.15
2024-01-17T12:34:27.614Z,8.40
2024-01-17T12:37:00.722Z,9.13
2024-01-17T12:39:36.071Z,8.23
2024-01-17T12:42:09.173Z,9.10
2024-01-17T12:44:41.963Z,9.07
2024-01-17T12:47:15.420Z,9.23
2024-01-17T12:49:50.960Z,9.88
2024-01-17T12:52:24.203Z,9.57
2024-01-17T12:54:57.238Z,9.68
2024-01-17T12:57:30.309Z,9.27
2024-01-17T13:00:11.300Z,10.75
2024-01-17T13:02:44.907Z,9.60
2024-01-17T13:05:18.078Z,9.82
2024-01-17T13:07:51.385Z,12.75
2024-01-17T13:10:24.557Z,11.40
2024-01-17T13:12:57.950Z,8.35
2024-01-17T13:15:30.849Z,14.52
2024-01-17T13:18:05.287Z,14.48
2024-01-17T13:20:40.227Z,13.00
2024-01-17T13:23:13.429Z,12.32
2024-01-17T13:25:46.476Z,14.82
2024-01-17T13:28:19.633Z,11.27
2024-01-17T13:30:52.549Z,11.00
2024-01-17T13:33:26.501Z,9.57
2024-01-17T13:35:59.322Z,13.07
2024-01-17T13:38:35.315Z,12.75
2024-01-17T13:41:08.595Z,10.88
2024-01-17T13:43:42.181Z,10.68
2024-01-17T13:46:16.965Z,11.38
2024-01-17T13:48:51.330Z,13.02
2024-01-17T13:51:26.265Z,10.98
2024-01-17T13:54:05.941Z,11.50
2024-01-17T13:56:40.436Z,11.15
2024-01-17T13:59:13.776Z,11.13
2024-01-17T14:01:46.473Z,10.77
2024-01-17T14:04:20.297Z,10.88
2024-01-17T14:06:53.103Z,12.25
2024-01-17T14:09:28.294Z,11.73
2024-01-17T14:12:02.521Z,10.90
2024-01-17T14:14:37.504Z,19.75
2024-01-17T14:17:11.083Z,13.68
2024-01-17T14:19:44.157Z,10.48
2024-01-17T14:22:19.471Z,12.85
2024-01-17T14:24:52.465Z,10.57
2024-01-17T14:27:26.707Z,12.88
2024-01-17T14:30:00.264Z,11.68
2024-01-17T14:32:33.212Z,13.10
2024-01-17T14:35:06.894Z,13.88
2024-01-17T14:37:41.448Z,13.35
2024-01-17T14:40:15.026Z,12.35
2024-01-17T14:42:49.602Z,13.20
2024-01-17T14:45:22.793Z,13.60
2024-01-17T14:47:55.604Z,13.13
2024-01-17T14:50:29.155Z,13.73
2024-01-17T14:53:01.818Z,14.00
2024-01-17T14:55:34.896Z,11.88
2024-01-17T14:58:07.890Z,13.40
2024-01-17T15:00:41.048Z,13.68
2024-01-17T15:03:13.848Z,11.73
2024-01-17T15:05:47.394Z,13.13
2024-01-17T15:08:20.109Z,12.52
2024-01-17T15:10:53.359Z,9.43
2024-01-17T15:13:26.278Z,11.52
2024-01-17T15:16:00.148Z,10.48
2024-01-17T15:18:34.330Z,10.85
2024-01-17T15:21:12.790Z,10.88
2024-01-17T15:23:45.741Z,11.20
2024-01-17T15:26:18.967Z,9.35
2024-01-17T15:28:51.564Z,9.55
2024-01-17T15:31:24.562Z,11.75
2024-01-17T15:33:57.353Z,8.65
2024-01-17T15:36:45.409Z,9.90
2024-01-17T15:39:21.221Z,9.60
2024-01-17T15:41:56.642Z,8.65
2024-01-17T15:44:30.328Z,8.07
2024-01-17T15:47:03.533Z,10.07
2024-01-17T15:49:36.392Z,10.43
2024-01-17T15:52:10.183Z,10.07
2024-01-17T15:54:43.755Z,10.23
2024-01-17T15:57:16.926Z,13.70
2024-01-17T15:59:49.861Z,11.57
2024-01-17T16:02:23.775Z,10.35
2024-01-17T16:04:58.809Z,14.32
2024-01-17T16:07:31.929Z,11.75
2024-01-17T16:10:06.710Z,13.00
2024-01-17T16:12:40.400Z,9.30
2024-01-17T16:15:16.839Z,10.98
2024-01-17T16:17:53.406Z,13.95
2024-01-17T16:20:27.492Z,12.98
2024-01-17T16:23:01.563Z,12.20
2024-01-17T16:25:36.735Z,13.25
2024-01-17T16:28:10.318Z,10.68
2024-01-17T16:30:45.702Z,12.65
2024-01-17T16:33:18.737Z,9.82
2024-01-17T16:35:51.474Z,7.40
2024-01-17T16:38:24.549Z,7.97
2024-01-17T16:40:57.719Z,8.80
2024-01-17T16:43:31.284Z,7.25
2024-01-17T16:46:04.488Z,7.63
2024-01-17T16:48:37.667Z,7.93
2024-01-17T16:51:10.489Z,8.38
2024-01-17T16:53:43.498Z,8.55
2024-01-17T16:56:22.593Z,7.55
2024-01-17T16:58:57.866Z,6.28
2024-01-17T17:01:30.665Z,8.02
2024-01-17T17:04:04.400Z,7.78
2024-01-17T17:06:37.188Z,8.38
2024-01-17T17:09:12.745Z,7.72
2024-01-17T17:11:46.811Z,7.65
2024-01-17T17:14:20.278Z,7.10
2024-01-17T17:16:53.284Z,7.25
2024-01-17T17:19:26.430Z,7.43
2024-01-17T17:21:59.082Z,8.52
2024-01-17T17:24:34.377Z,6.28
2024-01-17T17:27:07.718Z,6.82
2024-01-17T17:29:41.321Z,7.97
2024-01-17T17:32:17.264Z,9.63
2024-01-17T17:34:54.935Z,7.43
2024-01-17T17:37:27.679Z,8.60
2024-01-17T17:40:01.309Z,6.47
2024-01-17T17:42:34.277Z,8.23
2024-01-17T17:45:07.745Z,7.53
2024-01-17T17:47:40.529Z,11.60
2024-01-17T17:50:15.062Z,9.23
2024-01-17T17:52:47.945Z,8.75
2024-01-17T17:55:21.722Z,7.68
2024-01-17T17:57:54.697Z,7.90
2024-01-17T18:00:27.844Z,7.72
2024-01-17T18:03:04.597Z,6.78
2024-01-17T18:05:41.240Z,8.52
2024-01-17T18:08:16.254Z,7.97
2024-01-17T18:10:49.939Z,8.50
2024-01-17T18:13:23.032Z,6.65
2024-01-17T18:15:56.203Z,8.18
2024-01-17T18:18:29.963Z,6.07
2024-01-17T18:21:05.090Z,8.38
2024-01-17T18:23:37.794Z,7.53
2024-01-17T18:26:11.145Z,7.20
2024-01-17T18:28:44.072Z,7.28
2024-01-17T18:31:17.581Z,8.10
2024-01-17T18:33:50.481Z,8.13
2024-01-17T18:36:23.644Z,8.77
2024-01-17T18:38:56.692Z,6.63
2024-01-17T18:41:32.035Z,8.25
2024-01-17T18:44:05.015Z,8.98
2024-01-17T18:46:38.285Z,7.43
2024-01-17T18:49:13.858Z,8.02
2024-01-17T18:51:47.065Z,7.20
2024-01-17T18:54:19.773Z,7.88
2024-01-17T18:56:53.380Z,6.97
2024-01-17T18:59:26.415Z,21.75
2024-01-17T19:01:59.539Z,23.05
2024-01-17T19:04:32.873Z,11.38
2024-01-17T19:07:05.928Z,10.32
2024-01-17T19:09:39.927Z,8.88
2024-01-17T19:12:13.809Z,15.60
2024-01-17T19:14:47.444Z,8.68
2024-01-17T19:17:27.070Z,11.10
2024-01-17T19:20:00.998Z,7.78
2024-01-17T19:22:37.148Z,6.03
2024-01-17T19:25:12.017Z,8.52
2024-01-17T19:27:46.989Z,7.85
2024-01-17T19:30:22.498Z,7.82
2024-01-17T19:32:57.372Z,9.35
2024-01-17T19:35:30.103Z,7.90
2024-01-17T19:38:03.276Z,8.35
2024-01-17T19:40:36.902Z,8.73
2024-01-17T19:43:11.799Z,8.45
2024-01-17T19:45:44.840Z,7.10
2024-01-17T19:48:22.469Z,7.82
2024-01-17T19:50:56.558Z,8.00
2024-01-17T19:53:29.488Z,6.75
2024-01-17T19:56:02.674Z,7.53
2024-01-17T19:58:35.904Z,9.00
2024-01-17T20:01:08.548Z,7.55
2024-01-17T20:03:46.290Z,8.80
2024-01-17T20:06:23.233Z,7.28
2024-01-17T20:08:56.481Z,7.10
2024-01-17T20:11:29.974Z,6.38
2024-01-17T20:14:02.956Z,6.45
2024-01-17T20:16:35.855Z,5.45
2024-01-17T20:19:10.590Z,6.38
2024-01-17T20:21:43.313Z,6.07
2024-01-17T20:24:16.321Z,6.38
2024-01-17T20:26:49.065Z,6.72
2024-01-17T20:29:22.172Z,5.75
2024-01-17T20:31:56.658Z,6.07
2024-01-17T20:34:30.268Z,5.65
2024-01-17T20:37:03.069Z,6.22
2024-01-17T20:39:36.127Z,6.68
2024-01-17T20:42:08.747Z,7.45
2024-01-17T20:44:42.807Z,7.43
2024-01-17T20:47:15.343Z,6.78
2024-01-17T20:49:49.393Z,6.40
2024-01-17T20:52:22.108Z,7.78
2024-01-17T20:54:55.688Z,6.38
2024-01-17T20:57:28.370Z,7.85
2024-01-17T21:00:01.932Z,6.55
2024-01-17T21:02:35.027Z,8.55
2024-01-17T21:05:08.477Z,7.72
2024-01-17T21:07:41.188Z,6.70
2024-01-17T21:10:14.300Z,6.57
2024-01-17T21:12:46.991Z,7.55
2024-01-17T21:15:20.203Z,8.00
2024-01-17T21:17:52.898Z,6.78
2024-01-17T21:20:25.904Z,8.52
2024-01-17T21:22:59.586Z,6.53
2024-01-17T21:25:32.716Z,7.35
2024-01-17T21:28:06.818Z,7.30
2024-01-17T21:30:40.543Z,6.53
2024-01-17T21:33:13.382Z,6.40
2024-01-17T21:35:46.837Z,6.90
2024-01-17T21:38:19.879Z,6.15
2024-01-17T21:40:52.911Z,7.60
2024-01-17T21:43:25.466Z,6.63
2024-01-17T21:45:58.405Z,6.78
2024-01-17T21:48:31.099Z,7.55
2024-01-17T21:51:04.787Z,8.23
2024-01-17T21:53:40.987Z,5.55
2024-01-17T21:56:14.340Z,6.82
2024-01-17T21:58:47.729Z,7.45
2024-01-17T22:01:20.702Z,8.20
2024-01-17T22:03:53.252Z,7.30
2024-01-17T22:06:27.032Z,6.47
2024-01-17T22:09:01.189Z,5.22
2024-01-17T22:11:34.329Z,5.78
2024-01-17T22:14:07.005Z,4.82
2024-01-17T22:16:39.959Z,6.22
2024-01-17T22:19:14.414Z,6.97
2024-01-17T22:21:47.464Z,5.53
2024-01-17T22:24:20.168Z,6.30
2024-01-17T22:26:53.263Z,5.72
2024-01-17T22:29:26.452Z,5.93
2024-01-17T22:31:59.870Z,4.93
2024-01-17T22:34:32.890Z,5.30
2024-01-17T22:37:06.134Z,5.03
2024-01-17T22:39:40.321Z,6.00
2024-01-17T22:42:13.395Z,5.57
2024-01-17T22:44:46.085Z,5.28
2024-01-17T22:47:19.057Z,5.15
2024-01-17T22:49:51.791Z,5.20
2024-01-17T22:52:24.956Z,6.50
2024-01-17T22:54:57.562Z,6.72
2024-01-17T22:57:31.862Z,6.07
2024-01-17T23:00:07.006Z,6.93
2024-01-17T23:02:40.044Z,7.03
2024-01-17T23:05:15.945Z,4.93
2024-01-17T23:07:57.606Z,5.78
2024-01-17T23:10:38.057Z,6.50
2024-01-17T23:13:11.121Z,6.43
2024-01-17T23:15:43.978Z,7.65
2024-01-17T23:18:17.847Z,7.85
2024-01-17T23:20:50.584Z,6.78
2024-01-17T23:23:23.617Z,5.45
2024-01-17T23:25:56.329Z,6.82
2024-01-17T23:28:29.369Z,6.22
2024-01-17T23:31:02.070Z,6.05
2024-01-17T23:33:35.228Z,7.10
2024-01-17T23:36:08.158Z,7.35
2024-01-17T23:38:41.220Z,7.68
2024-01-17T23:41:13.924Z,6.90
2024-01-17T23:43:47.002Z,6.93
2024-01-17T23:46:19.594Z,6.32
2024-01-17T23:48:52.730Z,7.10
2024-01-17T23:51:25.464Z,6.78
2024-01-17T23:53:58.688Z,5.85
2024-01-17T23:56:37.785Z,6.05
2024-01-17T23:59:10.961Z,7.30
